createdAt,value
2019-04-29T00:00:47.581Z,10.43
2019-04-29T00:03:20.136Z,10.44
2019-04-29T00:05:51.301Z,10.40
2019-04-29T00:08:22.449Z,10.39
2019-04-29T00:10:53.670Z,10.38
2019-04-29T00:13:25.271Z,10.36
2019-04-29T00:16:12.381Z,10.37
2019-04-29T00:18:59.934Z,10.29
2019-04-29T00:21:31.325Z,10.23
2019-04-29T00:24:04.076Z,10.26
2019-04-29T00:26:35.617Z,10.19
2019-04-29T00:29:06.834Z,10.10
2019-04-29T00:31:37.896Z,10.12
2019-04-29T00:34:10.105Z,10.22
2019-04-29T00:36:49.156Z,10.21
2019-04-29T00:39:45.135Z,10.20
2019-04-29T00:42:31.431Z,10.23
2019-04-29T00:45:03.185Z,10.17
2019-04-29T00:47:34.245Z,10.14
2019-04-29T00:50:05.670Z,10.23
2019-04-29T00:52:36.733Z,10.19
2019-04-29T00:55:11.531Z,10.19
2019-04-29T00:57:42.595Z,10.17
2019-04-29T01:00:19.884Z,10.16
2019-04-29T01:02:50.885Z,10.10
2019-04-29T01:05:21.925Z,10.28
2019-04-29T01:07:53.352Z,10.18
2019-04-29T01:10:24.491Z,10.14
2019-04-29T01:12:55.739Z,10.19
2019-04-29T01:15:27.097Z,10.08
2019-04-29T01:17:58.198Z,10.03
2019-04-29T01:20:29.283Z,10.04
2019-04-29T01:23:00.338Z,10.03
2019-04-29T01:25:31.377Z,10.01
2019-04-29T01:28:24.042Z,10.03
2019-04-29T01:31:00.029Z,10.07
2019-04-29T01:33:31.986Z,9.99
2019-04-29T01:36:31.255Z,9.92
2019-04-29T01:39:04.543Z,9.93
2019-04-29T01:42:02.434Z,9.83
2019-04-29T01:44:35.268Z,9.90
2019-04-29T01:47:06.426Z,9.91
2019-04-29T01:49:37.428Z,9.85
2019-04-29T01:52:08.695Z,9.75
2019-04-29T01:54:40.485Z,9.77
2019-04-29T01:57:11.635Z,9.78
2019-04-29T01:59:42.631Z,9.75
2019-04-29T02:02:13.635Z,9.75
2019-04-29T02:04:44.642Z,9.78
2019-04-29T02:07:15.814Z,9.68
2019-04-29T02:10:14.836Z,9.77
2019-04-29T02:12:45.802Z,9.77
2019-04-29T02:15:17.284Z,9.74
2019-04-29T02:17:48.664Z,9.73
2019-04-29T02:20:20.793Z,9.55
2019-04-29T02:23:11.780Z,9.57
2019-04-29T02:25:44.698Z,9.56
2019-04-29T02:28:15.732Z,9.54
2019-04-29T02:30:50.997Z,9.55
2019-04-29T02:33:22.236Z,9.48
2019-04-29T02:35:53.463Z,9.54
2019-04-29T02:38:37.922Z,9.45
2019-04-29T02:41:16.231Z,9.47
2019-04-29T02:43:49.129Z,9.48
2019-04-29T02:46:20.135Z,9.45
2019-04-29T02:48:51.216Z,9.44
2019-04-29T02:54:30.647Z,9.49
2019-04-29T02:57:23.630Z,9.36
2019-04-29T02:59:59.010Z,9.24
2019-04-29T03:02:49.092Z,9.20
2019-04-29T03:05:23.664Z,9.23
2019-04-29T03:07:54.754Z,9.11
2019-04-29T03:10:26.142Z,9.05
2019-04-29T03:12:57.500Z,9.04
2019-04-29T03:15:33.953Z,9.15
2019-04-29T03:18:05.189Z,9.09
2019-04-29T03:20:42.949Z,9.08
2019-04-29T03:23:16.340Z,9.09
2019-04-29T03:25:47.798Z,9.00
2019-04-29T03:28:18.810Z,9.03
2019-04-29T03:30:50.303Z,9.13
2019-04-29T03:33:21.378Z,9.11
2019-04-29T03:35:52.583Z,8.95
2019-04-29T03:38:23.656Z,8.89
2019-04-29T03:40:54.719Z,8.93
2019-04-29T03:43:25.791Z,8.86
2019-04-29T03:45:57.760Z,8.79
2019-04-29T03:48:28.921Z,8.89
2019-04-29T03:51:00.222Z,8.79
2019-04-29T03:53:31.242Z,8.72
2019-04-29T03:56:02.612Z,8.74
2019-04-29T03:58:33.612Z,8.73
2019-04-29T04:01:15.984Z,8.78
2019-04-29T04:03:51.142Z,8.89
2019-04-29T04:06:47.156Z,8.71
2019-04-29T04:09:23.380Z,8.81
2019-04-29T04:11:54.401Z,8.76
2019-04-29T04:14:25.683Z,8.81
2019-04-29T04:17:03.858Z,8.73
2019-04-29T04:19:35.061Z,8.87
2019-04-29T04:22:06.179Z,8.74
2019-04-29T04:24:37.214Z,8.74
2019-04-29T04:27:08.230Z,8.67
2019-04-29T04:29:40.812Z,8.68
2019-04-29T04:32:11.900Z,8.63
2019-04-29T04:34:43.200Z,8.62
2019-04-29T04:37:14.210Z,8.64
2019-04-29T04:39:46.679Z,8.67
2019-04-29T04:42:17.666Z,8.57
2019-04-29T04:44:49.251Z,8.35
2019-04-29T04:47:21.539Z,8.35
2019-04-29T04:49:52.615Z,8.31
2019-04-29T04:52:23.657Z,8.27
2019-04-29T04:54:55.838Z,8.35
2019-04-29T04:57:26.926Z,8.32
2019-04-29T04:59:59.067Z,8.44
2019-04-29T05:02:30.187Z,8.25
2019-04-29T05:05:01.194Z,8.35
2019-04-29T05:07:32.180Z,8.26
2019-04-29T05:10:03.271Z,8.28
2019-04-29T05:12:34.266Z,8.31
2019-04-29T05:15:06.012Z,8.18
2019-04-29T05:17:37.008Z,8.26
2019-04-29T05:20:09.591Z,8.29
2019-04-29T05:22:44.106Z,8.30
2019-04-29T05:25:15.431Z,8.50
2019-04-29T05:27:46.666Z,8.49
2019-04-29T05:30:17.834Z,8.59
2019-04-29T05:32:48.819Z,8.59
2019-04-29T05:35:24.804Z,8.62
2019-04-29T05:37:59.958Z,8.73
2019-04-29T05:40:38.029Z,8.85
2019-04-29T05:43:10.921Z,8.92
2019-04-29T05:46:17.056Z,8.73
2019-04-29T05:48:46.908Z,8.80
2019-04-29T05:51:35.946Z,8.88
2019-04-29T05:54:07.910Z,9.05
2019-04-29T05:56:38.941Z,9.07
2019-04-29T05:59:12.781Z,9.02
2019-04-29T06:01:47.172Z,9.07
2019-04-29T06:04:18.178Z,9.09
2019-04-29T06:06:49.249Z,9.08
2019-04-29T06:09:20.250Z,9.11
2019-04-29T06:11:51.340Z,9.14
2019-04-29T06:14:22.417Z,9.19
2019-04-29T06:16:57.632Z,9.30
2019-04-29T06:19:26.333Z,9.41
2019-04-29T06:21:57.654Z,9.51
2019-04-29T06:24:28.679Z,9.54
2019-04-29T06:27:00.047Z,9.70
2019-04-29T06:29:31.121Z,9.79
2019-04-29T06:32:02.293Z,9.88
2019-04-29T06:34:35.597Z,9.91
2019-04-29T06:37:06.345Z,10.00
2019-04-29T06:39:37.347Z,10.07
2019-04-29T06:42:08.357Z,10.20
2019-04-29T06:44:39.488Z,10.21
2019-04-29T06:47:11.052Z,10.34
2019-04-29T06:49:42.086Z,10.44
2019-04-29T06:52:13.082Z,10.55
2019-04-29T06:54:44.164Z,10.69
2019-04-29T06:57:15.231Z,10.81
2019-04-29T06:59:47.528Z,10.89
2019-04-29T07:02:19.266Z,10.93
2019-04-29T07:04:50.383Z,11.02
2019-04-29T07:07:21.704Z,11.10
2019-04-29T07:09:52.822Z,11.10
2019-04-29T07:12:23.892Z,11.14
2019-04-29T07:14:55.064Z,11.10
2019-04-29T07:17:26.380Z,11.17
2019-04-29T07:20:02.145Z,11.33
2019-04-29T07:22:31.342Z,11.28
2019-04-29T07:25:02.405Z,11.30
2019-04-29T07:27:34.461Z,11.42
2019-04-29T07:30:08.372Z,11.62
2019-04-29T07:32:42.158Z,11.64
2019-04-29T07:35:13.010Z,11.71
2019-04-29T07:37:44.024Z,11.69
2019-04-29T07:40:17.106Z,11.77
2019-04-29T07:42:48.267Z,11.83
2019-04-29T07:45:44.022Z,11.89
2019-04-29T07:48:12.419Z,11.94
2019-04-29T07:50:43.884Z,11.92
2019-04-29T07:53:14.921Z,12.07
2019-04-29T07:55:46.018Z,11.99
2019-04-29T07:58:17.044Z,12.04
2019-04-29T08:00:48.873Z,12.20
2019-04-29T08:03:21.160Z,12.21
2019-04-29T08:05:53.456Z,12.28
2019-04-29T08:08:25.537Z,12.42
2019-04-29T08:10:56.901Z,12.47
2019-04-29T08:13:28.495Z,12.30
2019-04-29T08:16:00.804Z,12.43
2019-04-29T08:18:31.896Z,12.51
2019-04-29T08:21:02.980Z,12.61
2019-04-29T08:23:40.894Z,12.60
2019-04-29T08:26:06.732Z,12.69
2019-04-29T08:28:38.848Z,12.63
2019-04-29T08:31:11.315Z,12.73
2019-04-29T08:33:46.277Z,12.80
2019-04-29T08:36:15.069Z,12.88
2019-04-29T08:38:46.340Z,13.03
2019-04-29T08:41:21.509Z,13.17
2019-04-29T08:44:16.831Z,13.21
2019-04-29T08:46:53.633Z,13.22
2019-04-29T08:49:24.820Z,13.23
2019-04-29T08:51:55.904Z,13.29
2019-04-29T08:54:26.943Z,13.38
2019-04-29T08:57:02.894Z,13.39
2019-04-29T08:59:31.042Z,13.53
2019-04-29T09:02:05.222Z,13.60
2019-04-29T09:04:35.343Z,13.59
2019-04-29T09:07:12.773Z,13.67
2019-04-29T09:09:39.313Z,13.79
2019-04-29T09:12:11.556Z,13.79
2019-04-29T09:14:43.037Z,13.84
2019-04-29T09:17:20.609Z,13.90
2019-04-29T09:19:47.011Z,13.87
2019-04-29T09:22:20.710Z,13.93
2019-04-29T09:25:16.852Z,13.91
2019-04-29T09:27:48.882Z,14.07
2019-04-29T09:30:20.104Z,14.13
2019-04-29T09:32:51.112Z,14.27
2019-04-29T09:35:22.288Z,14.37
2019-04-29T09:37:53.796Z,14.44
2019-04-29T09:40:28.329Z,14.30
2019-04-29T09:43:15.427Z,14.40
2019-04-29T09:45:46.846Z,14.51
2019-04-29T09:48:17.917Z,14.59
2019-04-29T09:50:49.036Z,14.67
2019-04-29T09:53:20.071Z,14.67
2019-04-29T09:55:51.332Z,14.64
2019-04-29T09:58:22.463Z,14.77
2019-04-29T10:01:13.872Z,14.88
2019-04-29T10:03:56.537Z,14.87
2019-04-29T10:06:30.021Z,14.78
2019-04-29T10:09:01.447Z,14.82
2019-04-29T10:11:34.516Z,14.86
2019-04-29T10:14:05.950Z,14.95
2019-04-29T10:16:56.002Z,15.09
2019-04-29T10:19:58.005Z,15.18
2019-04-29T10:22:29.058Z,15.11
2019-04-29T10:25:00.201Z,14.96
2019-04-29T10:27:31.483Z,14.97
2019-04-29T10:30:02.624Z,15.06
2019-04-29T10:32:37.821Z,15.07
2019-04-29T10:35:10.696Z,15.15
2019-04-29T10:37:42.981Z,15.04
2019-04-29T10:40:43.713Z,15.03
2019-04-29T10:43:24.686Z,15.16
2019-04-29T10:46:13.488Z,15.22
2019-04-29T10:48:52.551Z,15.24
2019-04-29T10:51:27.496Z,15.20
2019-04-29T10:53:58.760Z,15.20
2019-04-29T10:56:29.902Z,15.23
2019-04-29T10:59:04.522Z,15.23
2019-04-29T11:02:35.577Z,15.23
2019-04-29T11:05:31.543Z,15.22
2019-04-29T11:08:11.571Z,15.22
2019-04-29T11:10:44.801Z,15.21
2019-04-29T11:13:15.917Z,15.25
2019-04-29T11:15:49.543Z,15.26
2019-04-29T11:18:23.294Z,15.26
2019-04-29T11:20:55.309Z,15.29
2019-04-29T11:23:42.408Z,15.37
2019-04-29T11:26:32.390Z,15.33
2019-04-29T11:29:06.210Z,15.33
2019-04-29T11:31:37.684Z,15.36
2019-04-29T11:34:18.051Z,15.37
2019-04-29T11:36:49.314Z,15.42
2019-04-29T11:39:21.423Z,15.44
2019-04-29T11:41:54.551Z,15.45
2019-04-29T11:44:26.614Z,15.52
2019-04-29T11:46:59.207Z,15.57
2019-04-29T11:49:39.133Z,15.59
2019-04-29T11:52:10.482Z,15.61
2019-04-29T11:54:42.059Z,15.66
2019-04-29T11:57:20.245Z,15.71
2019-04-29T12:00:10.721Z,15.65
2019-04-29T12:02:48.814Z,15.62
2019-04-29T12:05:26.524Z,15.54
2019-04-29T12:07:57.634Z,15.52
2019-04-29T12:10:28.699Z,15.52
2019-04-29T12:13:01.358Z,15.45
2019-04-29T12:15:50.274Z,15.47
2019-04-29T12:18:37.988Z,15.40
2019-04-29T12:21:18.960Z,15.43
2019-04-29T12:23:52.163Z,15.55
2019-04-29T12:26:23.369Z,15.47
2019-04-29T12:28:54.796Z,15.50
2019-04-29T12:31:32.061Z,15.47
2019-04-29T12:34:21.998Z,15.56
2019-04-29T12:36:56.450Z,15.51
2019-04-29T12:39:44.962Z,15.40
2019-04-29T12:42:54.946Z,15.41
2019-04-29T12:45:28.956Z,15.39
2019-04-29T12:48:00.069Z,15.27
2019-04-29T12:50:31.121Z,15.45
2019-04-29T12:53:02.845Z,15.34
2019-04-29T12:55:45.897Z,15.39
2019-04-29T12:58:13.318Z,15.43
2019-04-29T13:00:48.161Z,15.38
2019-04-29T13:03:39.770Z,15.49
2019-04-29T13:06:13.801Z,15.52
2019-04-29T13:08:47.720Z,15.56
2019-04-29T13:11:20.783Z,15.54
2019-04-29T13:13:56.549Z,15.60
2019-04-29T13:16:41.099Z,15.67
2019-04-29T13:19:29.698Z,15.85
2019-04-29T13:21:59.639Z,15.62
2019-04-29T13:24:30.884Z,15.44
2019-04-29T13:27:15.410Z,15.51
2019-04-29T13:29:36.104Z,15.64
2019-04-29T13:32:07.346Z,15.66
2019-04-29T13:34:41.154Z,15.59
2019-04-29T13:37:19.007Z,15.60
2019-04-29T13:39:46.144Z,15.70
2019-04-29T13:42:17.675Z,15.56
2019-04-29T13:45:05.443Z,15.62
2019-04-29T13:47:40.623Z,15.58
2019-04-29T13:50:23.126Z,15.59
2019-04-29T13:52:48.477Z,15.61
2019-04-29T13:55:46.192Z,15.57
2019-04-29T13:57:54.908Z,15.55
2019-04-29T14:00:38.265Z,15.52
2019-04-29T14:03:15.513Z,15.54
2019-04-29T14:05:46.714Z,15.58
2019-04-29T14:08:17.762Z,15.60
2019-04-29T14:10:51.223Z,15.56
2019-04-29T14:13:21.769Z,15.56
2019-04-29T14:15:53.034Z,15.55
2019-04-29T14:18:24.115Z,15.55
2019-04-29T14:20:55.319Z,15.50
2019-04-29T14:23:26.628Z,15.44
2019-04-29T14:25:57.632Z,15.49
2019-04-29T14:28:29.116Z,15.51
2019-04-29T14:31:00.755Z,15.31
2019-04-29T14:33:37.323Z,15.43
2019-04-29T14:36:10.327Z,15.37
2019-04-29T14:38:42.683Z,15.32
2019-04-29T14:41:18.682Z,15.39
2019-04-29T14:44:03.730Z,15.30
2019-04-29T14:46:56.086Z,15.32
2019-04-29T14:49:35.488Z,15.31
2019-04-29T14:52:08.350Z,15.38
2019-04-29T14:54:41.695Z,15.36
2019-04-29T14:57:12.616Z,15.27
2019-04-29T14:59:43.791Z,15.29
2019-04-29T15:02:21.950Z,15.22
2019-04-29T15:04:53.275Z,15.33
2019-04-29T15:07:24.398Z,15.36
2019-04-29T15:09:56.324Z,15.36
2019-04-29T15:13:19.294Z,15.24
2019-04-29T15:15:44.122Z,15.28
2019-04-29T15:18:48.006Z,15.31
2019-04-29T15:21:32.039Z,15.27
2019-04-29T15:23:56.024Z,15.33
2019-04-29T15:26:27.016Z,15.35
2019-04-29T15:28:58.123Z,15.37
2019-04-29T15:31:29.145Z,15.35
2019-04-29T15:34:00.434Z,15.26
2019-04-29T15:36:34.825Z,15.28
2019-04-29T15:39:11.195Z,15.29
2019-04-29T15:41:42.342Z,15.39
2019-04-29T15:44:19.878Z,15.41
2019-04-29T15:46:47.037Z,15.39
2019-04-29T15:49:20.001Z,15.65
2019-04-29T15:51:51.226Z,15.35
2019-04-29T15:54:25.755Z,15.24
2019-04-29T15:56:55.770Z,15.29
2019-04-29T15:59:27.167Z,15.29
2019-04-29T16:01:59.230Z,15.22
2019-04-29T16:04:35.576Z,15.19
2019-04-29T16:07:37.996Z,15.17
2019-04-29T16:10:29.015Z,15.19
2019-04-29T16:13:03.954Z,15.20
2019-04-29T16:15:35.418Z,15.23
2019-04-29T16:18:10.562Z,15.22
2019-04-29T16:20:39.264Z,15.22
2019-04-29T16:23:10.384Z,15.17
2019-04-29T16:25:46.370Z,15.17
2019-04-29T16:28:14.374Z,15.14
2019-04-29T16:30:45.392Z,15.11
2019-04-29T16:33:16.400Z,15.13
2019-04-29T16:35:47.914Z,15.10
2019-04-29T16:38:19.153Z,15.11
2019-04-29T16:40:57.851Z,15.06
2019-04-29T16:43:36.982Z,15.02
2019-04-29T16:46:14.664Z,14.96
2019-04-29T16:48:45.964Z,14.91
2019-04-29T16:51:17.184Z,14.89
2019-04-29T16:53:48.279Z,14.87
2019-04-29T16:56:19.386Z,14.89
2019-04-29T16:58:50.442Z,14.80
2019-04-29T17:01:21.652Z,14.73
2019-04-29T17:03:52.670Z,14.64
2019-04-29T17:06:23.942Z,14.61
2019-04-29T17:09:23.498Z,14.55
2019-04-29T17:11:58.302Z,14.45
2019-04-29T17:14:28.995Z,14.31
2019-04-29T17:17:00.012Z,14.31
2019-04-29T17:19:31.046Z,14.39
2019-04-29T17:22:24.289Z,14.33
2019-04-29T17:24:35.636Z,14.21
2019-04-29T17:27:19.930Z,14.25
2019-04-29T17:30:12.144Z,14.21
2019-04-29T17:32:50.512Z,14.21
2019-04-29T17:35:23.029Z,14.12
2019-04-29T17:37:54.499Z,13.97
2019-04-29T17:40:26.570Z,13.94
2019-04-29T17:43:19.531Z,13.89
2019-04-29T17:46:04.426Z,13.84
2019-04-29T17:48:48.646Z,13.89
2019-04-29T17:51:18.227Z,13.84
2019-04-29T17:53:55.184Z,13.84
2019-04-29T17:56:35.294Z,13.83
2019-04-29T17:59:29.429Z,13.85
2019-04-29T18:02:07.717Z,13.77
2019-04-29T18:04:57.723Z,13.71
2019-04-29T18:07:35.542Z,13.52
2019-04-29T18:10:41.737Z,13.49
2019-04-29T18:13:18.801Z,13.46
2019-04-29T18:16:00.030Z,13.49
2019-04-29T18:18:26.372Z,13.39
2019-04-29T18:21:15.987Z,13.33
2019-04-29T18:24:05.159Z,13.36
2019-04-29T18:26:52.727Z,13.31
2019-04-29T18:29:23.006Z,13.22
2019-04-29T18:31:55.617Z,13.17
2019-04-29T18:34:29.333Z,13.12
2019-04-29T18:37:00.397Z,13.06
2019-04-29T18:39:33.168Z,13.02
2019-04-29T18:42:06.708Z,12.98
2019-04-29T18:44:40.578Z,12.99
2019-04-29T18:47:21.933Z,12.99
2019-04-29T18:49:45.392Z,13.03
2019-04-29T18:52:25.396Z,13.01
2019-04-29T18:54:50.019Z,12.90
2019-04-29T18:57:28.682Z,12.92
2019-04-29T18:59:54.942Z,12.83
2019-04-29T19:02:27.477Z,12.70
2019-04-29T19:05:04.544Z,12.73
2019-04-29T19:07:37.282Z,12.70
2019-04-29T19:10:14.067Z,12.69
2019-04-29T19:12:41.824Z,12.62
2019-04-29T19:15:15.112Z,12.75
2019-04-29T19:17:58.764Z,12.58
2019-04-29T19:20:20.451Z,12.56
2019-04-29T19:23:05.143Z,12.58
2019-04-29T19:25:25.506Z,12.67
2019-04-29T19:27:57.598Z,12.60
2019-04-29T19:30:29.385Z,12.73
2019-04-29T19:33:01.971Z,12.56
2019-04-29T19:35:34.615Z,12.67
2019-04-29T19:38:06.944Z,12.59
2019-04-29T19:40:42.464Z,12.53
2019-04-29T19:43:15.317Z,12.58
2019-04-29T19:45:48.844Z,12.59
2019-04-29T19:48:22.440Z,12.58
2019-04-29T19:51:13.618Z,12.58
2019-04-29T19:53:25.180Z,12.54
2019-04-29T19:56:04.205Z,12.51
2019-04-29T19:58:31.403Z,12.56
2019-04-29T20:01:13.115Z,12.56
2019-04-29T20:03:41.863Z,12.56
2019-04-29T20:06:21.457Z,12.39
2019-04-29T20:08:54.622Z,12.42
2019-04-29T20:11:31.636Z,12.34
2019-04-29T20:14:02.091Z,12.31
2019-04-29T20:16:56.074Z,12.27
2019-04-29T20:19:29.009Z,12.29
2019-04-29T20:22:07.594Z,12.28
2019-04-29T20:24:35.423Z,12.24
2019-04-29T20:27:06.472Z,12.28
2019-04-29T20:29:38.525Z,12.28
2019-04-29T20:32:11.617Z,12.15
2019-04-29T20:34:43.175Z,12.23
2019-04-29T20:37:16.140Z,12.22
2019-04-29T20:39:47.387Z,12.24
2019-04-29T20:42:19.029Z,12.12
2019-04-29T20:44:50.008Z,12.07
2019-04-29T20:47:23.651Z,12.25
2019-04-29T20:49:53.870Z,12.23
2019-04-29T20:52:38.204Z,12.19
2019-04-29T20:55:11.067Z,12.24
2019-04-29T20:57:42.439Z,12.14
2019-04-29T21:00:13.831Z,12.16
2019-04-29T21:02:46.379Z,12.16
2019-04-29T21:05:23.319Z,12.21
2019-04-29T21:08:02.122Z,12.25
2019-04-29T21:10:25.153Z,12.17
2019-04-29T21:13:20.221Z,12.13
2019-04-29T21:15:59.636Z,12.02
2019-04-29T21:18:30.860Z,12.05
2019-04-29T21:21:04.553Z,12.09
2019-04-29T21:23:36.721Z,12.19
2019-04-29T21:26:08.827Z,12.07
2019-04-29T21:28:41.815Z,12.04
2019-04-29T21:31:16.654Z,12.06
2019-04-29T21:33:46.475Z,12.12
2019-04-29T21:36:30.751Z,12.15
2019-04-29T21:39:15.353Z,12.09
2019-04-29T21:41:55.489Z,12.06
2019-04-29T21:44:27.797Z,12.08
2019-04-29T21:46:59.686Z,12.02
2019-04-29T21:49:42.749Z,12.09
2019-04-29T21:52:05.707Z,12.17
2019-04-29T21:54:36.966Z,12.09
2019-04-29T21:57:08.443Z,11.86
2019-04-29T21:59:41.440Z,11.99
2019-04-29T22:02:13.501Z,11.91
2019-04-29T22:04:46.803Z,12.00
2019-04-29T22:07:18.086Z,11.98
2019-04-29T22:09:50.287Z,11.89
2019-04-29T22:12:21.640Z,11.92
2019-04-29T22:14:54.181Z,11.94
2019-04-29T22:17:32.708Z,11.87
2019-04-29T22:20:03.906Z,11.92
2019-04-29T22:22:35.039Z,11.92
2019-04-29T22:25:09.627Z,11.94
2019-04-29T22:27:39.442Z,11.97
2019-04-29T22:30:15.468Z,11.97
2019-04-29T22:32:47.132Z,12.00
2019-04-29T22:35:19.075Z,11.99
2019-04-29T22:37:50.172Z,11.99
2019-04-29T22:40:21.266Z,12.06
2019-04-29T22:43:08.350Z,12.05
2019-04-29T22:45:33.987Z,12.06
2019-04-29T22:48:14.883Z,12.11
2019-04-29T22:50:39.841Z,12.12
2019-04-29T22:53:11.057Z,12.16
2019-04-29T22:55:42.214Z,12.04
2019-04-29T22:58:15.065Z,12.20
2019-04-29T23:00:46.381Z,12.14
2019-04-29T23:03:17.473Z,12.09
2019-04-29T23:05:48.506Z,12.13
2019-04-29T23:08:21.164Z,12.11
2019-04-29T23:10:52.338Z,12.14
2019-04-29T23:13:26.744Z,12.12
2019-04-29T23:16:01.741Z,12.16
2019-04-29T23:18:41.020Z,12.09
2019-04-29T23:21:37.461Z,12.14
2019-04-29T23:24:26.194Z,12.03
2019-04-29T23:26:57.464Z,12.08
2019-04-29T23:29:28.811Z,12.10
2019-04-29T23:32:04.800Z,12.11
2019-04-29T23:34:32.994Z,12.14
2019-04-29T23:37:04.081Z,12.13
2019-04-29T23:39:35.107Z,12.13
2019-04-29T23:42:12.029Z,12.17
2019-04-29T23:44:42.486Z,12.19
2019-04-29T23:47:13.000Z,12.16
2019-04-29T23:49:44.952Z,12.09
2019-04-29T23:52:17.974Z,12.08
2019-04-29T23:54:49.240Z,12.01
2019-04-29T23:57:45.963Z,12.03
